createdAt,value
2018-03-03T00:02:04.091Z,-0.11
2018-03-03T00:04:34.028Z,-0.22
2018-03-03T00:07:03.773Z,-0.22
2018-03-03T00:09:33.680Z,-0.18
2018-03-03T00:12:03.377Z,-0.18
2018-03-03T00:14:33.098Z,-0.17
2018-03-03T00:17:02.849Z,-0.12
2018-03-03T00:19:32.562Z,-0.10
2018-03-03T00:22:02.332Z,-0.08
2018-03-03T00:24:32.784Z,-0.13
2018-03-03T00:27:02.585Z,-0.22
2018-03-03T00:29:32.902Z,-0.23
2018-03-03T00:32:02.674Z,-0.17
2018-03-03T00:34:32.408Z,-0.23
2018-03-03T00:37:02.213Z,-0.17
2018-03-03T00:39:31.972Z,-0.23
2018-03-03T00:42:03.182Z,-0.37
2018-03-03T00:44:33.744Z,-0.39
2018-03-03T00:47:03.621Z,-0.33
2018-03-03T00:49:33.421Z,-0.29
2018-03-03T00:52:03.131Z,-0.36
2018-03-03T00:54:32.996Z,-0.35
2018-03-03T00:57:02.767Z,-0.32
2018-03-03T00:59:32.530Z,-0.21
2018-03-03T01:02:02.291Z,-0.26
2018-03-03T01:04:32.810Z,-0.22
2018-03-03T01:07:02.515Z,-0.14
2018-03-03T01:09:33.433Z,-0.09
2018-03-03T01:12:03.195Z,-0.12
2018-03-03T01:14:32.863Z,-0.01
2018-03-03T01:17:02.605Z,-0.04
2018-03-03T01:19:32.372Z,0.07
2018-03-03T01:22:02.146Z,-0.06
2018-03-03T01:24:31.889Z,-0.12
2018-03-03T01:27:02.183Z,-0.13
2018-03-03T01:29:32.084Z,-0.14
2018-03-03T01:32:02.604Z,-0.04
2018-03-03T01:34:32.320Z,-0.18
2018-03-03T01:37:01.986Z,-0.12
2018-03-03T01:39:32.588Z,-0.28
2018-03-03T01:42:02.284Z,-0.22
2018-03-03T01:44:32.076Z,-0.18
2018-03-03T01:47:01.872Z,-0.17
2018-03-03T01:49:32.430Z,-0.16
2018-03-03T01:52:03.044Z,-0.19
2018-03-03T01:54:32.789Z,-0.22
2018-03-03T01:57:03.305Z,-0.21
2018-03-03T01:59:33.049Z,-0.21
2018-03-03T02:02:02.796Z,-0.21
2018-03-03T02:04:32.563Z,-0.25
2018-03-03T02:07:02.285Z,-0.15
2018-03-03T02:09:31.979Z,-0.29
2018-03-03T02:12:01.727Z,-0.28
2018-03-03T02:14:31.438Z,-0.18
2018-03-03T02:17:01.150Z,-0.24
2018-03-03T02:19:30.901Z,-0.28
2018-03-03T02:22:00.624Z,-0.22
2018-03-03T02:24:30.881Z,-0.25
2018-03-03T02:27:01.425Z,-0.22
2018-03-03T02:29:32.194Z,-0.23
2018-03-03T02:32:01.921Z,-0.23
2018-03-03T02:34:31.674Z,-0.21
2018-03-03T02:37:01.371Z,-0.36
2018-03-03T02:39:31.192Z,-0.39
2018-03-03T02:42:00.939Z,-0.43
2018-03-03T02:44:30.773Z,-0.23
2018-03-03T02:47:00.550Z,-0.35
2018-03-03T02:49:30.283Z,-0.52
2018-03-03T02:52:00.010Z,-0.50
2018-03-03T02:54:29.744Z,-0.75
2018-03-03T02:56:59.454Z,-0.72
2018-03-03T02:59:29.336Z,-0.70
2018-03-03T03:01:59.066Z,-0.84
2018-03-03T03:04:28.763Z,-0.77
2018-03-03T03:06:59.269Z,-0.73
2018-03-03T03:09:28.984Z,-0.75
2018-03-03T03:11:58.690Z,-0.79
2018-03-03T03:14:28.496Z,-0.88
2018-03-03T03:16:58.241Z,-0.91
2018-03-03T03:19:27.937Z,-0.88
2018-03-03T03:21:57.754Z,-0.98
2018-03-03T03:24:27.453Z,-1.12
2018-03-03T03:26:57.236Z,-1.22
2018-03-03T03:29:26.961Z,-1.14
2018-03-03T03:31:56.660Z,-1.12
2018-03-03T03:34:26.527Z,-1.10
2018-03-03T03:36:56.291Z,-1.28
2018-03-03T03:39:26.104Z,-1.31
2018-03-03T03:41:56.617Z,-1.36
2018-03-03T03:44:26.320Z,-1.37
2018-03-03T03:46:56.109Z,-1.39
2018-03-03T03:49:25.822Z,-1.37
2018-03-03T03:51:55.523Z,-1.35
2018-03-03T03:54:25.331Z,-1.38
2018-03-03T03:56:55.106Z,-1.38
2018-03-03T03:59:24.797Z,-1.35
2018-03-03T04:01:55.400Z,-1.38
2018-03-03T04:04:25.095Z,-1.28
2018-03-03T04:06:54.928Z,-1.22
2018-03-03T04:09:25.442Z,-1.36
2018-03-03T04:11:55.173Z,-1.27
2018-03-03T04:14:24.863Z,-1.22
2018-03-03T04:16:55.347Z,-1.28
2018-03-03T04:19:25.129Z,-1.20
2018-03-03T04:21:54.889Z,-1.10
2018-03-03T04:24:24.700Z,-1.14
2018-03-03T04:26:54.455Z,-1.14
2018-03-03T04:29:24.444Z,-1.23
2018-03-03T04:31:54.253Z,-1.19
2018-03-03T04:34:24.723Z,-1.16
2018-03-03T04:36:54.545Z,-1.31
2018-03-03T04:39:24.284Z,-1.34
2018-03-03T04:41:54.027Z,-1.31
2018-03-03T04:44:23.946Z,-1.14
2018-03-03T04:46:53.688Z,-1.14
2018-03-03T04:49:23.446Z,-1.10
2018-03-03T04:51:53.256Z,-1.10
2018-03-03T04:54:23.084Z,-1.20
2018-03-03T04:56:52.927Z,-1.16
2018-03-03T04:59:22.743Z,-1.14
2018-03-03T05:01:53.236Z,-1.14
2018-03-03T05:04:23.115Z,-1.12
2018-03-03T05:06:53.026Z,-1.02
2018-03-03T05:09:22.818Z,-1.18
2018-03-03T05:11:52.581Z,-1.08
2018-03-03T05:14:22.408Z,-1.08
2018-03-03T05:16:52.228Z,-1.13
2018-03-03T05:19:22.197Z,-1.21
2018-03-03T05:21:55.892Z,-1.11
2018-03-03T05:24:25.783Z,-1.06
2018-03-03T05:26:56.529Z,-0.97
2018-03-03T05:29:26.477Z,-0.98
2018-03-03T05:31:56.530Z,-1.05
2018-03-03T05:34:26.668Z,-1.03
2018-03-03T05:36:58.277Z,-1.02
2018-03-03T05:39:28.159Z,-0.99
2018-03-03T05:41:58.125Z,-1.07
2018-03-03T05:44:28.784Z,-1.03
2018-03-03T05:46:58.659Z,-0.96
2018-03-03T05:49:28.480Z,-1.00
2018-03-03T05:51:58.392Z,-0.98
2018-03-03T05:54:28.450Z,-0.88
2018-03-03T05:56:58.288Z,-0.87
2018-03-03T05:59:28.988Z,-0.82
2018-03-03T06:01:59.136Z,-0.77
2018-03-03T06:04:28.914Z,-0.75
2018-03-03T06:06:58.710Z,-0.77
2018-03-03T06:09:29.334Z,-0.72
2018-03-03T06:11:59.140Z,-0.83
2018-03-03T06:14:29.082Z,-0.81
2018-03-03T06:16:58.802Z,-0.77
2018-03-03T06:19:28.679Z,-0.78
2018-03-03T06:21:58.453Z,-0.68
2018-03-03T06:24:28.160Z,-0.73
2018-03-03T06:26:57.930Z,-0.68
2018-03-03T06:29:27.623Z,-0.58
2018-03-03T06:31:57.404Z,-0.59
2018-03-03T06:34:27.085Z,-0.59
2018-03-03T06:36:57.628Z,-0.66
2018-03-03T06:39:27.341Z,-0.72
2018-03-03T06:41:58.013Z,-0.67
2018-03-03T06:44:27.793Z,-0.58
2018-03-03T06:46:57.541Z,-0.51
2018-03-03T06:49:28.077Z,-0.63
2018-03-03T06:51:57.836Z,-0.58
2018-03-03T06:54:27.649Z,-0.57
2018-03-03T06:56:57.333Z,-0.60
2018-03-03T06:59:28.065Z,-0.48
2018-03-03T07:01:57.792Z,-0.52
2018-03-03T07:04:27.693Z,-0.47
2018-03-03T07:06:57.604Z,-0.56
2018-03-03T07:09:27.330Z,-0.46
2018-03-03T07:11:57.065Z,-0.38
2018-03-03T07:14:26.971Z,-0.37
2018-03-03T07:16:56.951Z,-0.40
2018-03-03T07:19:27.586Z,-0.44
2018-03-03T07:21:58.451Z,-0.47
2018-03-03T07:24:29.863Z,-0.35
2018-03-03T07:26:59.617Z,-0.31
2018-03-03T07:29:29.398Z,-0.21
2018-03-03T07:31:59.133Z,-0.19
2018-03-03T07:34:28.912Z,-0.16
2018-03-03T07:36:58.718Z,-0.12
2018-03-03T07:39:29.215Z,-0.05
2018-03-03T07:41:58.980Z,-0.12
2018-03-03T07:44:29.505Z,0.01
2018-03-03T07:46:59.249Z,-0.01
2018-03-03T07:49:29.773Z,-0.05
2018-03-03T07:52:00.309Z,0.00
2018-03-03T07:54:30.059Z,0.03
2018-03-03T07:57:12.723Z,0.13
2018-03-03T07:59:42.556Z,0.23
2018-03-03T08:02:13.215Z,0.22
2018-03-03T08:04:43.256Z,0.19
2018-03-03T08:07:14.077Z,0.16
2018-03-03T08:09:44.787Z,0.14
2018-03-03T08:12:14.541Z,0.22
2018-03-03T08:14:44.501Z,0.15
2018-03-03T08:17:15.059Z,0.28
2018-03-03T08:19:44.832Z,0.29
2018-03-03T08:22:14.609Z,0.39
2018-03-03T08:24:44.460Z,0.47
2018-03-03T08:27:14.340Z,0.57
2018-03-03T08:29:44.795Z,0.59
2018-03-03T08:32:15.296Z,0.65
2018-03-03T08:34:45.043Z,0.85
2018-03-03T08:37:15.659Z,0.66
2018-03-03T08:39:45.505Z,0.92
2018-03-03T08:42:15.320Z,0.69
2018-03-03T08:44:44.993Z,0.64
2018-03-03T08:47:14.761Z,0.73
2018-03-03T08:49:44.588Z,0.47
2018-03-03T08:52:14.271Z,0.56
2018-03-03T08:54:44.824Z,0.64
2018-03-03T08:57:14.567Z,0.51
2018-03-03T08:59:44.293Z,0.75
2018-03-03T09:02:14.011Z,0.68
2018-03-03T09:04:43.717Z,0.76
2018-03-03T09:07:13.479Z,1.00
2018-03-03T09:09:43.217Z,1.14
2018-03-03T09:12:12.961Z,1.19
2018-03-03T09:14:42.753Z,1.10
2018-03-03T09:17:12.586Z,1.22
2018-03-03T09:19:42.645Z,1.30
2018-03-03T09:22:12.452Z,1.41
2018-03-03T09:24:42.305Z,1.13
2018-03-03T09:27:12.104Z,1.11
2018-03-03T09:29:42.252Z,1.13
2018-03-03T09:32:12.104Z,1.32
2018-03-03T09:34:41.905Z,1.22
2018-03-03T09:37:12.024Z,1.17
2018-03-03T09:39:41.839Z,1.09
2018-03-03T09:42:11.669Z,1.40
2018-03-03T09:44:41.454Z,1.77
2018-03-03T09:47:12.441Z,2.02
2018-03-03T09:49:42.756Z,2.29
2018-03-03T09:52:12.486Z,1.92
2018-03-03T09:54:42.602Z,1.99
2018-03-03T09:57:12.417Z,2.16
2018-03-03T09:59:42.195Z,2.21
2018-03-03T10:02:12.296Z,1.83
2018-03-03T10:04:42.016Z,1.54
2018-03-03T10:07:11.773Z,1.55
2018-03-03T10:09:41.910Z,1.59
2018-03-03T10:12:11.706Z,1.42
2018-03-03T10:14:41.423Z,1.37
2018-03-03T10:17:11.150Z,1.42
2018-03-03T10:19:41.078Z,1.48
2018-03-03T10:22:10.913Z,1.46
2018-03-03T10:24:40.737Z,1.63
2018-03-03T10:27:10.568Z,1.91
2018-03-03T10:29:40.387Z,2.20
2018-03-03T10:32:11.659Z,1.90
2018-03-03T10:34:41.468Z,2.10
2018-03-03T10:37:11.231Z,2.37
2018-03-03T10:39:41.717Z,2.48
2018-03-03T10:42:11.517Z,2.51
2018-03-03T10:44:41.350Z,2.56
2018-03-03T10:47:11.161Z,2.68
2018-03-03T10:49:41.141Z,2.82
2018-03-03T10:52:10.842Z,2.65
2018-03-03T10:54:40.828Z,2.77
2018-03-03T10:57:10.824Z,2.80
2018-03-03T10:59:40.636Z,2.64
2018-03-03T11:02:10.801Z,3.01
2018-03-03T11:04:41.259Z,3.21
2018-03-03T11:07:10.995Z,3.32
2018-03-03T11:09:40.783Z,2.92
2018-03-03T11:12:10.540Z,3.08
2018-03-03T11:14:40.511Z,3.55
2018-03-03T11:17:10.595Z,3.23
2018-03-03T11:19:40.329Z,3.31
2018-03-03T11:22:10.133Z,2.84
2018-03-03T11:24:39.933Z,2.80
2018-03-03T11:57:13.024Z,2.84
2018-03-03T11:59:42.780Z,2.86
2018-03-03T12:02:13.567Z,2.85
2018-03-03T12:04:43.511Z,2.93
2018-03-03T12:07:13.331Z,2.87
2018-03-03T12:09:43.191Z,3.12
2018-03-03T12:12:12.973Z,3.35
2018-03-03T12:14:42.885Z,2.81
2018-03-03T12:17:12.644Z,2.81
2018-03-03T12:19:42.616Z,2.95
2018-03-03T12:22:12.476Z,2.54
2018-03-03T12:24:42.964Z,2.60
2018-03-03T12:27:13.588Z,3.10
2018-03-03T12:29:43.277Z,3.09
2018-03-03T12:32:13.350Z,3.06
2018-03-03T12:34:43.905Z,3.07
2018-03-03T12:37:14.434Z,2.96
2018-03-03T12:39:44.926Z,3.12
2018-03-03T12:42:14.737Z,3.38
2018-03-03T12:44:44.475Z,3.36
2018-03-03T12:47:14.202Z,3.38
2018-03-03T12:49:44.120Z,3.48
2018-03-03T12:52:13.937Z,4.02
2018-03-03T12:54:44.451Z,3.82
2018-03-03T12:57:14.218Z,3.90
2018-03-03T12:59:44.214Z,3.42
2018-03-03T13:02:14.046Z,3.53
2018-03-03T13:04:44.555Z,3.60
2018-03-03T13:07:15.134Z,3.67
2018-03-03T13:09:44.944Z,3.92
2018-03-03T13:12:14.677Z,3.39
2018-03-03T13:14:44.543Z,3.48
2018-03-03T13:17:14.303Z,3.54
2018-03-03T13:19:45.954Z,4.00
2018-03-03T13:22:16.585Z,4.09
2018-03-03T13:24:47.164Z,4.27
2018-03-03T13:27:16.884Z,4.24
2018-03-03T13:29:46.674Z,3.92
2018-03-03T13:32:17.581Z,3.95
2018-03-03T13:34:47.312Z,3.96
2018-03-03T13:37:17.254Z,4.21
2018-03-03T13:39:47.101Z,4.47
2018-03-03T13:42:16.848Z,4.84
2018-03-03T13:44:46.576Z,5.06
2018-03-03T13:47:16.410Z,4.79
2018-03-03T13:49:46.205Z,4.39
2018-03-03T13:52:16.001Z,4.29
2018-03-03T13:54:46.581Z,4.52
2018-03-03T13:57:16.383Z,4.59
2018-03-03T13:59:47.028Z,4.44
2018-03-03T14:02:17.548Z,4.14
2018-03-03T14:04:47.243Z,4.09
2018-03-03T14:07:17.251Z,4.09
2018-03-03T14:09:47.253Z,4.51
2018-03-03T14:12:17.038Z,4.48
2018-03-03T14:14:46.816Z,4.20
2018-03-03T14:17:16.555Z,4.04
2018-03-03T14:19:46.307Z,4.33
2018-03-03T14:22:16.052Z,4.95
2018-03-03T14:24:46.593Z,4.50
2018-03-03T14:27:17.141Z,3.69
2018-03-03T14:29:46.869Z,3.80
2018-03-03T14:32:16.651Z,4.77
2018-03-03T14:34:46.417Z,4.93
2018-03-03T14:37:16.158Z,4.99
2018-03-03T14:39:45.976Z,4.90
2018-03-03T14:42:15.790Z,4.59
2018-03-03T14:44:45.734Z,4.03
2018-03-03T14:47:15.498Z,3.67
2018-03-03T14:49:45.265Z,3.73
2018-03-03T14:52:15.341Z,3.50
2018-03-03T14:54:45.074Z,3.48
2018-03-03T14:57:15.041Z,3.49
2018-03-03T14:59:45.001Z,3.87
2018-03-03T15:02:14.793Z,3.75
2018-03-03T15:04:44.686Z,3.77
2018-03-03T15:07:14.612Z,3.78
2018-03-03T15:09:45.133Z,3.71
2018-03-03T15:12:14.932Z,4.28
2018-03-03T15:14:44.635Z,4.33
2018-03-03T15:17:14.377Z,4.36
2018-03-03T15:19:44.264Z,3.74
2018-03-03T15:22:14.789Z,3.65
2018-03-03T15:24:45.400Z,3.51
2018-03-03T15:27:15.988Z,3.51
2018-03-03T15:29:46.497Z,3.43
2018-03-03T15:32:16.258Z,3.27
2018-03-03T15:34:46.309Z,3.20
2018-03-03T15:37:16.178Z,3.27
2018-03-03T15:39:45.935Z,3.35
2018-03-03T15:42:15.779Z,3.32
2018-03-03T15:44:45.556Z,3.41
2018-03-03T15:47:15.322Z,3.22
2018-03-03T15:49:45.058Z,3.08
2018-03-03T15:52:14.915Z,2.89
2018-03-03T15:54:44.660Z,2.91
2018-03-03T15:57:15.306Z,2.93
2018-03-03T15:59:45.170Z,2.98
2018-03-03T16:02:15.042Z,2.94
2018-03-03T16:04:44.928Z,2.88
2018-03-03T16:07:14.748Z,2.83
2018-03-03T16:09:44.503Z,2.88
2018-03-03T16:12:14.325Z,2.90
2018-03-03T16:14:44.190Z,2.86
2018-03-03T16:17:14.236Z,2.88
2018-03-03T16:19:43.981Z,2.77
2018-03-03T16:22:14.470Z,2.84
2018-03-03T16:24:45.017Z,2.86
2018-03-03T16:27:14.789Z,2.70
2018-03-03T16:29:44.506Z,2.72
2018-03-03T16:32:14.274Z,2.67
2018-03-03T16:34:44.801Z,2.62
2018-03-03T16:37:14.574Z,2.53
2018-03-03T16:39:44.279Z,2.56
2018-03-03T16:42:14.123Z,2.56
2018-03-03T16:44:43.869Z,2.58
2018-03-03T16:47:13.733Z,2.49
2018-03-03T16:49:44.234Z,2.43
2018-03-03T16:52:13.995Z,2.33
2018-03-03T16:54:44.539Z,2.22
2018-03-03T16:57:14.315Z,2.29
2018-03-03T16:59:44.301Z,2.24
2018-03-03T17:02:14.097Z,2.23
2018-03-03T17:04:43.873Z,2.19
2018-03-03T17:07:13.582Z,2.16
2018-03-03T17:09:43.310Z,2.13
2018-03-03T17:12:13.072Z,2.13
2018-03-03T17:14:42.939Z,2.16
2018-03-03T17:17:12.861Z,2.19
2018-03-03T17:19:42.679Z,2.15
2018-03-03T17:22:12.403Z,2.18
2018-03-03T17:24:42.113Z,2.23
2018-03-03T17:27:12.668Z,2.11
2018-03-03T17:29:42.417Z,2.00
2018-03-03T17:32:12.381Z,2.16
2018-03-03T17:34:42.100Z,2.10
2018-03-03T17:37:11.827Z,2.06
2018-03-03T17:39:41.572Z,1.91
2018-03-03T17:42:11.506Z,1.95
2018-03-03T17:44:41.290Z,1.83
2018-03-03T17:47:11.068Z,1.76
2018-03-03T17:49:40.847Z,1.77
2018-03-03T17:52:11.448Z,1.76
2018-03-03T17:54:41.217Z,1.66
2018-03-03T17:57:11.786Z,1.59
2018-03-03T17:59:41.561Z,1.49
2018-03-03T18:02:11.403Z,1.63
2018-03-03T18:04:41.443Z,1.62
2018-03-03T18:07:11.595Z,1.60
2018-03-03T18:09:41.251Z,1.57
2018-03-03T18:12:11.113Z,1.56
2018-03-03T18:14:41.684Z,1.87
2018-03-03T18:17:11.577Z,1.72
2018-03-03T18:19:42.169Z,1.63
2018-03-03T18:22:12.030Z,1.47
2018-03-03T18:24:41.814Z,1.63
2018-03-03T18:27:11.497Z,1.60
2018-03-03T18:29:42.009Z,1.46
2018-03-03T18:32:11.830Z,1.53
2018-03-03T18:34:41.709Z,1.42
2018-03-03T18:37:11.540Z,1.45
2018-03-03T18:39:41.355Z,1.42
2018-03-03T18:42:11.296Z,1.38
2018-03-03T18:44:41.111Z,1.40
2018-03-03T18:47:11.784Z,1.47
2018-03-03T18:49:41.844Z,1.44
2018-03-03T18:52:12.500Z,1.41
2018-03-03T18:54:43.071Z,1.54
2018-03-03T18:57:12.910Z,1.51
2018-03-03T18:59:43.563Z,1.56
2018-03-03T19:02:13.526Z,1.39
2018-03-03T19:04:44.177Z,1.27
2018-03-03T19:07:14.654Z,1.17
2018-03-03T19:09:44.372Z,1.37
2018-03-03T19:12:14.234Z,1.29
2018-03-03T19:14:44.065Z,1.17
2018-03-03T19:17:13.896Z,1.28
2018-03-03T19:19:43.692Z,1.20
2018-03-03T19:22:13.436Z,1.22
2018-03-03T19:24:43.380Z,1.15
2018-03-03T19:27:13.138Z,1.25
2018-03-03T19:29:42.932Z,1.12
2018-03-03T19:32:12.969Z,1.10
2018-03-03T19:34:42.712Z,1.06
2018-03-03T19:37:12.605Z,1.13
2018-03-03T19:39:42.314Z,1.19
2018-03-03T19:42:13.685Z,1.28
2018-03-03T19:44:44.300Z,1.23
2018-03-03T19:47:14.175Z,1.16
2018-03-03T19:49:45.615Z,1.15
2018-03-03T19:52:16.239Z,1.04
2018-03-03T19:54:46.776Z,1.16
2018-03-03T19:57:16.625Z,1.11
2018-03-03T19:59:46.372Z,1.32
2018-03-03T20:02:16.181Z,1.31
2018-03-03T20:04:45.956Z,1.20
2018-03-03T20:07:15.703Z,1.13
2018-03-03T20:09:46.311Z,1.16
2018-03-03T20:12:16.161Z,1.16
2018-03-03T20:14:45.982Z,1.23
2018-03-03T20:17:15.881Z,1.36
2018-03-03T20:19:45.685Z,1.41
2018-03-03T20:22:15.616Z,1.38
2018-03-03T20:24:45.512Z,1.30
2018-03-03T20:27:15.279Z,1.35
2018-03-03T20:29:45.143Z,1.31
2018-03-03T20:32:15.811Z,1.31
2018-03-03T20:34:45.650Z,1.24
2018-03-03T20:37:15.658Z,1.26
2018-03-03T20:39:45.424Z,1.27
2018-03-03T20:42:15.282Z,1.20
2018-03-03T20:44:45.816Z,1.19
2018-03-03T20:47:16.451Z,1.16
2018-03-03T20:49:46.267Z,1.17
2018-03-03T20:52:16.100Z,1.18
2018-03-03T20:54:45.948Z,1.12
2018-03-03T20:57:16.618Z,1.17
2018-03-03T20:59:46.494Z,1.23
2018-03-03T21:02:16.287Z,1.25
2018-03-03T21:04:46.320Z,1.29
2018-03-03T21:07:16.232Z,1.26
2018-03-03T21:09:46.119Z,1.34
2018-03-03T21:12:16.869Z,1.27
2018-03-03T21:14:46.643Z,1.30
2018-03-03T21:17:16.406Z,1.37
2018-03-03T21:19:46.913Z,1.26
2018-03-03T21:22:16.671Z,1.23
2018-03-03T21:24:47.240Z,1.20
2018-03-03T21:27:17.032Z,1.21
2018-03-03T21:29:47.573Z,1.28
2018-03-03T21:32:18.145Z,1.27
2018-03-03T21:34:47.965Z,1.47
2018-03-03T21:37:20.517Z,1.52
2018-03-03T21:39:51.064Z,1.54
2018-03-03T21:42:21.721Z,1.54
2018-03-03T21:44:51.449Z,1.57
2018-03-03T21:47:21.222Z,1.48
2018-03-03T21:49:51.843Z,1.53
2018-03-03T21:52:21.596Z,1.44
2018-03-03T21:54:51.473Z,1.41
2018-03-03T21:57:21.359Z,1.41
2018-03-03T21:59:51.297Z,1.42
2018-03-03T22:02:21.823Z,1.43
2018-03-03T22:04:52.381Z,1.48
2018-03-03T22:07:22.991Z,1.51
2018-03-03T22:09:52.780Z,1.50
2018-03-03T22:12:22.569Z,1.49
2018-03-03T22:14:53.110Z,1.48
2018-03-03T22:17:23.760Z,1.50
2018-03-03T22:19:53.580Z,1.52
2018-03-03T22:22:23.323Z,1.52
2018-03-03T22:24:53.584Z,1.58
2018-03-03T22:27:23.357Z,1.61
2018-03-03T22:29:53.960Z,1.59
2018-03-03T22:32:23.724Z,1.61
2018-03-03T22:34:53.557Z,1.68
2018-03-03T22:37:23.319Z,1.74
2018-03-03T22:39:53.082Z,1.71
2018-03-03T22:42:22.929Z,1.79
2018-03-03T22:44:52.828Z,1.76
2018-03-03T22:47:23.364Z,1.78
2018-03-03T22:49:53.139Z,1.74
2018-03-03T22:52:22.974Z,1.76
2018-03-03T22:54:52.807Z,1.74
2018-03-03T22:57:22.675Z,1.84
2018-03-03T22:59:53.264Z,1.83
2018-03-03T23:02:23.147Z,1.88
2018-03-03T23:04:53.254Z,1.86
2018-03-03T23:07:23.069Z,1.83
2018-03-03T23:09:52.860Z,1.86
2018-03-03T23:12:22.828Z,1.85
2018-03-03T23:14:53.463Z,1.91
2018-03-03T23:17:23.160Z,2.48
2018-03-03T23:19:53.641Z,2.45
2018-03-03T23:22:24.129Z,2.40
2018-03-03T23:24:53.922Z,2.40
2018-03-03T23:27:23.659Z,2.53
2018-03-03T23:29:53.558Z,2.58
2018-03-03T23:32:24.156Z,2.59
2018-03-03T23:34:53.862Z,2.58
2018-03-03T23:37:23.788Z,2.60
2018-03-03T23:39:53.751Z,2.65
2018-03-03T23:42:23.544Z,2.65
2018-03-03T23:44:53.285Z,2.63
2018-03-03T23:47:23.169Z,2.66
2018-03-03T23:49:52.941Z,2.73
2018-03-03T23:52:22.702Z,2.73
2018-03-03T23:54:52.534Z,2.74
2018-03-03T23:57:22.281Z,2.78
2018-03-03T23:59:52.018Z,2.77
